sensor_id;sensor_type;location;lat;lon;timestamp;pressure;altitude;pressure_sealevel;temperature;humidity
74435;BME280;62867;52.038;29.256;2023-05-27T00:01:30;1023.9;;;18.9;59
74435;BME280;62867;52.038;29.256;2023-05-27T00:07:08;1023.9;;;18.9;59.2
74435;BME280;62867;52.038;29.256;2023-05-27T00:12:22;1023.9;;;18.8;59.1
74435;BME280;62867;52.038;29.256;2023-05-27T00:17:18;1023.9;;;18.8;58.8
74435;BME280;62867;52.038;29.256;2023-05-27T00:22:04;1023.9;;;18.8;58.9
74435;BME280;62867;52.038;29.256;2023-05-27T00:26:54;1023.9;;;18.8;59
74435;BME280;62867;52.038;29.256;2023-05-27T00:32:06;1023.8;;;18.7;58.7
74435;BME280;62867;52.038;29.256;2023-05-27T00:36:52;1023.8;;;18.7;58.4
74435;BME280;62867;52.038;29.256;2023-05-27T00:42:18;1023.8;;;18.6;58
74435;BME280;62867;52.038;29.256;2023-05-27T00:46:42;1023.8;;;18.6;57.3
74435;BME280;62867;52.038;29.256;2023-05-27T00:51:40;1023.8;;;18.6;56.9
74435;BME280;62867;52.038;29.256;2023-05-27T00:56:52;1023.7;;;18.5;56.9
74435;BME280;62867;52.038;29.256;2023-05-27T01:02:20;1023.7;;;18.5;56.4
74435;BME280;62867;52.038;29.256;2023-05-27T01:07:22;1023.8;;;18.4;56.4
74435;BME280;62867;52.038;29.256;2023-05-27T01:12:24;1023.8;;;18.3;56.3
74435;BME280;62867;52.038;29.256;2023-05-27T01:17:08;1023.8;;;18.3;55.8
74435;BME280;62867;52.038;29.256;2023-05-27T01:21:54;1023.8;;;18.2;55.8
74435;BME280;62867;52.038;29.256;2023-05-27T01:26:42;1023.7;;;18.2;56.2
74435;BME280;62867;52.038;29.256;2023-05-27T01:32:24;1023.7;;;18.1;56.3
74435;BME280;62867;52.038;29.256;2023-05-27T01:37:23;1023.8;;;18.1;56
74435;BME280;62867;52.038;29.256;2023-05-27T01:41:30;1023.8;;;18;55.7
74435;BME280;62867;52.038;29.256;2023-05-27T01:47:22;1023.8;;;18;55.4
74435;BME280;62867;52.038;29.256;2023-05-27T01:52:10;1023.9;;;17.9;55.3
74435;BME280;62867;52.038;29.256;2023-05-27T01:57:20;1023.9;;;17.8;55.4
74435;BME280;62867;52.038;29.256;2023-05-27T02:01:52;1024;;;17.7;55.7
74435;BME280;62867;52.038;29.256;2023-05-27T02:06:54;1024;;;17.7;55.6
74435;BME280;62867;52.038;29.256;2023-05-27T02:11:56;1024;;;17.6;55.8
74435;BME280;62867;52.038;29.256;2023-05-27T02:16:42;1024;;;17.5;56
74435;BME280;62867;52.038;29.256;2023-05-27T02:22:24;1024.1;;;17.4;56.2
74435;BME280;62867;52.038;29.256;2023-05-27T02:27:24;1024.1;;;17.3;56.3
74435;BME280;62867;52.038;29.256;2023-05-27T02:31:42;1024.2;;;17.3;55.8
74435;BME280;62867;52.038;29.256;2023-05-27T02:37:10;1024.2;;;17.2;56.1
74435;BME280;62867;52.038;29.256;2023-05-27T02:42:10;1024.1;;;17.2;56.3
74435;BME280;62867;52.038;29.256;2023-05-27T02:47:10;1024.1;;;17.1;56.5
74435;BME280;62867;52.038;29.256;2023-05-27T02:52:22;1024.2;;;17.1;56.4
74435;BME280;62867;52.038;29.256;2023-05-27T02:57:08;1024.2;;;17;56.3
74435;BME280;62867;52.038;29.256;2023-05-27T03:02:22;1024.2;;;17.1;56.4
74435;BME280;62867;52.038;29.256;2023-05-27T03:06:30;1024.2;;;17.1;55.8
74435;BME280;62867;52.038;29.256;2023-05-27T03:11:54;1024.3;;;17.2;56.1
74435;BME280;62867;52.038;29.256;2023-05-27T03:16:56;1024.3;;;17.3;55.8
74435;BME280;62867;52.038;29.256;2023-05-27T03:21:40;1024.3;;;17.4;55.7
74435;BME280;62867;52.038;29.256;2023-05-27T03:26:54;1024.3;;;17.5;55.2
74435;BME280;62867;52.038;29.256;2023-05-27T03:32:06;1024.3;;;17.7;54.7
74435;BME280;62867;52.038;29.256;2023-05-27T03:36:30;1024.3;;;17.9;54
74435;BME280;62867;52.038;29.256;2023-05-27T03:42:22;1024.4;;;18;53.7
74435;BME280;62867;52.038;29.256;2023-05-27T03:47:24;1024.4;;;18.2;53
74435;BME280;62867;52.038;29.256;2023-05-27T03:51:56;1024.5;;;18.5;52.8
74435;BME280;62867;52.038;29.256;2023-05-27T03:56:30;1024.5;;;18.8;52.3
74435;BME280;62867;52.038;29.256;2023-05-27T04:02:08;1024.5;;;19.1;51.3
74435;BME280;62867;52.038;29.256;2023-05-27T04:07:22;1024.6;;;19.3;50.1
74435;BME280;62867;52.038;29.256;2023-05-27T04:11:31;1024.6;;;19.6;49.7
74435;BME280;62867;52.038;29.256;2023-05-27T04:16:32;1024.6;;;19.8;49.1
74435;BME280;62867;52.038;29.256;2023-05-27T04:22:10;1024.7;;;20;48.9
74435;BME280;62867;52.038;29.256;2023-05-27T04:26:42;1024.8;;;20.1;48.6
74435;BME280;62867;52.038;29.256;2023-05-27T04:31:54;1024.8;;;20.2;48.1
74435;BME280;62867;52.038;29.256;2023-05-27T04:36:42;1024.7;;;20.2;47.3
74435;BME280;62867;52.038;29.256;2023-05-27T04:41:44;1024.7;;;20.1;48.2
74435;BME280;62867;52.038;29.256;2023-05-27T04:46:30;1024.7;;;20;47.9
74435;BME280;62867;52.038;29.256;2023-05-27T04:52:10;1024.6;;;19.8;48.8
74435;BME280;62867;52.038;29.256;2023-05-27T04:57:22;1024.7;;;19.7;49
74435;BME280;62867;52.038;29.256;2023-05-27T05:01:44;1024.7;;;19.6;48.5
74435;BME280;62867;52.038;29.256;2023-05-27T05:07:08;1024.7;;;19.7;47.9
74435;BME280;62867;52.038;29.256;2023-05-27T05:11:54;1024.7;;;19.6;47.9
74435;BME280;62867;52.038;29.256;2023-05-27T05:16:40;1024.7;;;19.4;48.5
74435;BME280;62867;52.038;29.256;2023-05-27T05:22:22;1024.7;;;19.4;48.4
74435;BME280;62867;52.038;29.256;2023-05-27T05:27:06;1024.7;;;19.5;48.4
74435;BME280;62867;52.038;29.256;2023-05-27T05:32:22;1024.7;;;19.4;48.9
74435;BME280;62867;52.038;29.256;2023-05-27T05:36:31;1024.8;;;19.4;49.5
74435;BME280;62867;52.038;29.256;2023-05-27T05:41:38;1024.8;;;19.5;48.8
74435;BME280;62867;52.038;29.256;2023-05-27T05:47:10;1024.8;;;19.8;48.3
74435;BME280;62867;52.038;29.256;2023-05-27T05:52:06;1024.8;;;20.3;46.9
74435;BME280;62867;52.038;29.256;2023-05-27T05:56:52;1024.8;;;20.9;46.1
74435;BME280;62867;52.038;29.256;2023-05-27T06:02:06;1024.8;;;21.5;45.3
74435;BME280;62867;52.038;29.256;2023-05-27T06:06:42;1024.8;;;22;45.1
74435;BME280;62867;52.038;29.256;2023-05-27T06:12:22;1024.9;;;22.5;44.5
74435;BME280;62867;52.038;29.256;2023-05-27T06:17:22;1024.9;;;22.8;43.8
74435;BME280;62867;52.038;29.256;2023-05-27T06:22:08;1024.9;;;23.3;42.7
74435;BME280;62867;52.038;29.256;2023-05-27T06:26:30;1024.9;;;23.6;41.5
74435;BME280;62867;52.038;29.256;2023-05-27T06:32:06;1024.9;;;23.9;41.1
74435;BME280;62867;52.038;29.256;2023-05-27T06:37:22;1025;;;24.1;40.6
74435;BME280;62867;52.038;29.256;2023-05-27T06:41:42;1025;;;24.4;40
74435;BME280;62867;52.038;29.256;2023-05-27T06:47:06;1025;;;24.6;39.1
74435;BME280;62867;52.038;29.256;2023-05-27T06:52:10;1025.1;;;24.8;39.5
74435;BME280;62867;52.038;29.256;2023-05-27T06:56:42;1025.1;;;25.1;38.7
74435;BME280;62867;52.038;29.256;2023-05-27T07:02:10;1025.1;;;25.4;38.7
74435;BME280;62867;52.038;29.256;2023-05-27T07:07:22;1025.1;;;25.7;38.3
74435;BME280;62867;52.038;29.256;2023-05-27T07:12:22;1025.1;;;25.9;37.5
74435;BME280;62867;52.038;29.256;2023-05-27T07:17:22;1025.1;;;26.1;37.4
74435;BME280;62867;52.038;29.256;2023-05-27T07:22:08;1025;;;26.2;36.4
74435;BME280;62867;52.038;29.256;2023-05-27T07:26:54;1025;;;26.4;35.3
74435;BME280;62867;52.038;29.256;2023-05-27T07:31:42;1025.1;;;26.6;34.9
74435;BME280;62867;52.038;29.256;2023-05-27T07:36:40;1025.1;;;26.9;34.7
74435;BME280;62867;52.038;29.256;2023-05-27T07:42:20;1025.1;;;27.1;33.6
74435;BME280;62867;52.038;29.256;2023-05-27T07:46:42;1025.2;;;27.3;33.5
74435;BME280;62867;52.038;29.256;2023-05-27T07:52:22;1025.2;;;27.5;33.2
74435;BME280;62867;52.038;29.256;2023-05-27T07:57:10;1025.2;;;27.8;32.8
74435;BME280;62867;52.038;29.256;2023-05-27T08:02:24;1025.2;;;28;32.4
74435;BME280;62867;52.038;29.256;2023-05-27T08:06:56;1025.2;;;28.1;32.3
74435;BME280;62867;52.038;29.256;2023-05-27T08:11:31;1025.2;;;28.3;31.9
74435;BME280;62867;52.038;29.256;2023-05-27T08:16:44;1025.2;;;28.4;31.5
74435;BME280;62867;52.038;29.256;2023-05-27T08:21:42;1025.2;;;28.5;30.7
74435;BME280;62867;52.038;29.256;2023-05-27T08:27:41;1025.1;;;28.8;30
74435;BME280;62867;52.038;29.256;2023-05-27T08:32:20;1025.2;;;28.9;29.7
74435;BME280;62867;52.038;29.256;2023-05-27T08:36:42;1025.2;;;29;29
74435;BME280;62867;52.038;29.256;2023-05-27T08:42:08;1025.2;;;29.2;28.6
74435;BME280;62867;52.038;29.256;2023-05-27T08:46:44;1025.2;;;29.3;27.9
74435;BME280;62867;52.038;29.256;2023-05-27T08:51:54;1025.2;;;29.4;27.7
74435;BME280;62867;52.038;29.256;2023-05-27T08:57:24;1025.2;;;29.6;28.2
74435;BME280;62867;52.038;29.256;2023-05-27T09:01:55;1025.2;;;29.6;27.4
74435;BME280;62867;52.038;29.256;2023-05-27T09:07:10;1025.1;;;29.8;27.8
74435;BME280;62867;52.038;29.256;2023-05-27T09:12:10;1025.1;;;30;27.2
74435;BME280;62867;52.038;29.256;2023-05-27T09:17:23;1025;;;30.2;27.3
74435;BME280;62867;52.038;29.256;2023-05-27T09:21:42;1025;;;30.5;27.8
74435;BME280;62867;52.038;29.256;2023-05-27T09:26:40;1025;;;30.7;27.6
74435;BME280;62867;52.038;29.256;2023-05-27T09:31:55;1025;;;30.9;27.1
74435;BME280;62867;52.038;29.256;2023-05-27T09:37:24;1025;;;31.1;26.6
74435;BME280;62867;52.038;29.256;2023-05-27T09:42:23;1024.9;;;31.2;26.3
74435;BME280;62867;52.038;29.256;2023-05-27T09:47:21;1024.9;;;31.4;26.2
74435;BME280;62867;52.038;29.256;2023-05-27T09:52:11;1024.9;;;31.5;25.8
74435;BME280;62867;52.038;29.256;2023-05-27T09:56:42;1024.9;;;31.5;25.3
74435;BME280;62867;52.038;29.256;2023-05-27T10:01:30;1024.9;;;31.6;25.2
74435;BME280;62867;52.038;29.256;2023-05-27T10:07:05;1024.9;;;31.8;25
74435;BME280;62867;52.038;29.256;2023-05-27T10:12:21;1024.9;;;32.1;25
74435;BME280;62867;52.038;29.256;2023-05-27T10:16:50;1024.9;;;32.3;24.8
74435;BME280;62867;52.038;29.256;2023-05-27T10:22:08;1024.8;;;32.5;24.4
74435;BME280;62867;52.038;29.256;2023-05-27T10:27:11;1024.9;;;32.6;24.5
74435;BME280;62867;52.038;29.256;2023-05-27T10:32:23;1024.9;;;32.6;23.5
74435;BME280;62867;52.038;29.256;2023-05-27T10:36:57;1024.8;;;32.8;23.8
74435;BME280;62867;52.038;29.256;2023-05-27T10:42:07;1024.9;;;33;23.4
74435;BME280;62867;52.038;29.256;2023-05-27T10:47:09;1024.9;;;33.3;22.9
74435;BME280;62867;52.038;29.256;2023-05-27T10:51:31;1024.8;;;33.3;22.3
74435;BME280;62867;52.038;29.256;2023-05-27T10:57:21;1024.8;;;33.5;21.4
74435;BME280;62867;52.038;29.256;2023-05-27T11:02:23;1024.8;;;33.7;20.8
74435;BME280;62867;52.038;29.256;2023-05-27T11:06:31;1024.8;;;33.9;20.5
74435;BME280;62867;52.038;29.256;2023-05-27T11:12:12;1024.7;;;34.1;20.6
74435;BME280;62867;52.038;29.256;2023-05-27T11:16:55;1024.7;;;34.3;20.3
74435;BME280;62867;52.038;29.256;2023-05-27T11:21:57;1024.8;;;34.6;20.3
74435;BME280;62867;52.038;29.256;2023-05-27T11:27:23;1024.7;;;34.7;19.8
74435;BME280;62867;52.038;29.256;2023-05-27T11:32:07;1024.7;;;34.9;20.2
74435;BME280;62867;52.038;29.256;2023-05-27T11:37:23;1024.6;;;35.2;20.2
74435;BME280;62867;52.038;29.256;2023-05-27T11:41:50;1024.6;;;35.4;19.3
74435;BME280;62867;52.038;29.256;2023-05-27T11:46:34;1024.5;;;36.9;18.1
74435;BME280;62867;52.038;29.256;2023-05-27T11:51:57;1024.5;;;39.9;16.1
74435;BME280;62867;52.038;29.256;2023-05-27T11:56:55;1024.4;;;42;15.5
74435;BME280;62867;52.038;29.256;2023-05-27T12:02:09;1024.5;;;44.3;13.1
74435;BME280;62867;52.038;29.256;2023-05-27T12:07:07;1024.5;;;46.2;12.9
74435;BME280;62867;52.038;29.256;2023-05-27T12:11:43;1024.4;;;47.6;10.5
74435;BME280;62867;52.038;29.256;2023-05-27T12:17:23;1024.4;;;48.9;9.8
74435;BME280;62867;52.038;29.256;2023-05-27T12:22:23;1024.4;;;49.8;10
74435;BME280;62867;52.038;29.256;2023-05-27T12:26:43;1024.4;;;50.3;9.1
74435;BME280;62867;52.038;29.256;2023-05-27T12:31:31;1024.4;;;50.7;8.8
74435;BME280;62867;52.038;29.256;2023-05-27T12:36:55;1024.4;;;50.8;9
74435;BME280;62867;52.038;29.256;2023-05-27T12:42:21;1024.4;;;50.7;8.8
74435;BME280;62867;52.038;29.256;2023-05-27T12:46:55;1024.3;;;49.7;8.5
74435;BME280;62867;52.038;29.256;2023-05-27T12:52:07;1024.3;;;47.9;9.4
74435;BME280;62867;52.038;29.256;2023-05-27T12:57:09;1024.3;;;44;11.3
74435;BME280;62867;52.038;29.256;2023-05-27T13:01:55;1024.3;;;40;13.7
74435;BME280;62867;52.038;29.256;2023-05-27T13:07:09;1024.3;;;36.7;15.6
74435;BME280;62867;52.038;29.256;2023-05-27T13:12:07;1024.2;;;34.2;18.1
74435;BME280;62867;52.038;29.256;2023-05-27T13:17:07;1024.3;;;32.5;19.3
74435;BME280;62867;52.038;29.256;2023-05-27T13:21:31;1024.3;;;31.3;20.1
74435;BME280;62867;52.038;29.256;2023-05-27T13:27:09;1024.3;;;30.3;21.6
74435;BME280;62867;52.038;29.256;2023-05-27T13:32:21;1024.4;;;29.5;22.4
74435;BME280;62867;52.038;29.256;2023-05-27T13:36:31;1024.4;;;28.8;24.5
74435;BME280;62867;52.038;29.256;2023-05-27T13:41:57;1024.3;;;28.2;26
74435;BME280;62867;52.038;29.256;2023-05-27T13:46:55;1024.3;;;27.7;25.9
74435;BME280;62867;52.038;29.256;2023-05-27T13:52:09;1024.3;;;27.4;27.5
74435;BME280;62867;52.038;29.256;2023-05-27T13:57:23;1024.3;;;27.3;28.3
74435;BME280;62867;52.038;29.256;2023-05-27T14:01:45;1024.3;;;27.1;28.3
74435;BME280;62867;52.038;29.256;2023-05-27T14:07:21;1024.3;;;26.8;27.8
74435;BME280;62867;52.038;29.256;2023-05-27T14:11:43;1024.3;;;26.5;28.4
74435;BME280;62867;52.038;29.256;2023-05-27T14:16:55;1024.3;;;26.2;29
74435;BME280;62867;52.038;29.256;2023-05-27T14:21:55;1024.4;;;25.9;29.4
74435;BME280;62867;52.038;29.256;2023-05-27T14:26:31;1024.4;;;25.6;29.7
74435;BME280;62867;52.038;29.256;2023-05-27T14:31:57;1024.4;;;25.4;30.6
74435;BME280;62867;52.038;29.256;2023-05-27T14:37:07;1024.4;;;25.1;31.5
74435;BME280;62867;52.038;29.256;2023-05-27T14:41:31;1024.5;;;24.8;32.4
74435;BME280;62867;52.038;29.256;2023-05-27T14:47:23;1024.5;;;24.7;32.4
74435;BME280;62867;52.038;29.256;2023-05-27T14:52:21;1024.6;;;24.6;32.3
74435;BME280;62867;52.038;29.256;2023-05-27T14:56:55;1024.6;;;24.6;32.8
74435;BME280;62867;52.038;29.256;2023-05-27T15:01:31;1024.7;;;24.5;33.9
74435;BME280;62867;52.038;29.256;2023-05-27T15:06:57;1024.8;;;24.4;34
74435;BME280;62867;52.038;29.256;2023-05-27T15:12:23;1024.8;;;24.3;35.4
74435;BME280;62867;52.038;29.256;2023-05-27T15:16:31;1024.9;;;24.2;35.7
74435;BME280;62867;52.038;29.256;2023-05-27T15:22:07;1024.9;;;24.2;37.1
74435;BME280;62867;52.038;29.256;2023-05-27T15:27:09;1024.9;;;24.3;36.6
74435;BME280;62867;52.038;29.256;2023-05-27T15:31:31;1024.9;;;24.3;35.6
74435;BME280;62867;52.038;29.256;2023-05-27T15:36:53;1025;;;24.4;35.4
74435;BME280;62867;52.038;29.256;2023-05-27T15:42:05;1025;;;24.4;35.8
74435;BME280;62867;52.038;29.256;2023-05-27T15:47:09;1025;;;24.3;36
74435;BME280;62867;52.038;29.256;2023-05-27T15:51:43;1025;;;24.2;36.4
74435;BME280;62867;52.038;29.256;2023-05-27T15:57:11;1025;;;24.1;36.4
74435;BME280;62867;52.038;29.256;2023-05-27T16:01:57;1025.1;;;23.9;37.1
74435;BME280;62867;52.038;29.256;2023-05-27T16:06:45;1025.1;;;23.6;37.8
74435;BME280;62867;52.038;29.256;2023-05-27T16:11:41;1025.2;;;23.4;35.4
74435;BME280;62867;52.038;29.256;2023-05-27T16:16:57;1025.3;;;23.2;35.4
74435;BME280;62867;52.038;29.256;2023-05-27T16:22:07;1025.3;;;22.9;36.5
74435;BME280;62867;52.038;29.256;2023-05-27T16:27:23;1025.4;;;22.7;36.1
74435;BME280;62867;52.038;29.256;2023-05-27T16:32:11;1025.4;;;22.4;36.3
74435;BME280;62867;52.038;29.256;2023-05-27T16:37:23;1025.5;;;22.2;36.5
74435;BME280;62867;52.038;29.256;2023-05-27T16:41:31;1025.5;;;22.1;37.1
74435;BME280;62867;52.038;29.256;2023-05-27T16:46:31;1025.6;;;21.9;38.4
74435;BME280;62867;52.038;29.256;2023-05-27T16:52:09;1025.6;;;21.7;38
74435;BME280;62867;52.038;29.256;2023-05-27T16:56:43;1025.7;;;21.6;38.1
74435;BME280;62867;52.038;29.256;2023-05-27T17:02:23;1025.8;;;21.4;38.8
74435;BME280;62867;52.038;29.256;2023-05-27T17:07:19;1025.9;;;21.2;40.1
74435;BME280;62867;52.038;29.256;2023-05-27T17:11:31;1025.9;;;21;39.7
74435;BME280;62867;52.038;29.256;2023-05-27T17:17:19;1026;;;20.9;38.8
74435;BME280;62867;52.038;29.256;2023-05-27T17:21:51;1026;;;20.8;38.4
74435;BME280;62867;52.038;29.256;2023-05-27T17:26:57;1026.1;;;20.7;38.8
74435;BME280;62867;52.038;29.256;2023-05-27T17:32:23;1026.2;;;20.6;38.8
74435;BME280;62867;52.038;29.256;2023-05-27T17:37:07;1026.2;;;20.5;39
74435;BME280;62867;52.038;29.256;2023-05-27T17:42:11;1026.3;;;20.3;40.1
74435;BME280;62867;52.038;29.256;2023-05-27T17:46:31;1026.3;;;20.1;40.5
74435;BME280;62867;52.038;29.256;2023-05-27T17:52:23;1026.3;;;20;40.7
74435;BME280;62867;52.038;29.256;2023-05-27T17:56:57;1026.4;;;19.8;41.4
74435;BME280;62867;52.038;29.256;2023-05-27T18:01:31;1026.4;;;19.6;41.5
74435;BME280;62867;52.038;29.256;2023-05-27T18:06:43;1026.5;;;19.5;41.7
74435;BME280;62867;52.038;29.256;2023-05-27T18:12:23;1026.6;;;19.4;41.9
74435;BME280;62867;52.038;29.256;2023-05-27T18:17:23;1026.6;;;19.2;42.4
74435;BME280;62867;52.038;29.256;2023-05-27T18:22:23;1026.7;;;19.1;42.8
74435;BME280;62867;52.038;29.256;2023-05-27T18:26:57;1026.8;;;19;43
74435;BME280;62867;52.038;29.256;2023-05-27T18:31:55;1026.9;;;18.8;43.5
74435;BME280;62867;52.038;29.256;2023-05-27T18:36:31;1027;;;18.6;43.7
74435;BME280;62867;52.038;29.256;2023-05-27T18:41:53;1027;;;18.5;43.9
74435;BME280;62867;52.038;29.256;2023-05-27T18:47:23;1027;;;18.3;44.5
74435;BME280;62867;52.038;29.256;2023-05-27T18:51:43;1027;;;18.2;45.4
74435;BME280;62867;52.038;29.256;2023-05-27T18:57:23;1027.1;;;18;46
74435;BME280;62867;52.038;29.256;2023-05-27T19:02:11;1027.1;;;17.9;46.7
74435;BME280;62867;52.038;29.256;2023-05-27T19:07:21;1027.2;;;17.7;46.8
74435;BME280;62867;52.038;29.256;2023-05-27T19:11:53;1027.2;;;17.6;46.8
74435;BME280;62867;52.038;29.256;2023-05-27T19:16:55;1027.3;;;17.4;46.6
74435;BME280;62867;52.038;29.256;2023-05-27T19:22:09;1027.4;;;17.3;46.8
74435;BME280;62867;52.038;29.256;2023-05-27T19:26:53;1027.4;;;17.2;46.8
74435;BME280;62867;52.038;29.256;2023-05-27T19:32:23;1027.4;;;17;47.2
74435;BME280;62867;52.038;29.256;2023-05-27T19:37:19;1027.5;;;16.9;47
74435;BME280;62867;52.038;29.256;2023-05-27T19:41:57;1027.5;;;16.8;47.8
74435;BME280;62867;52.038;29.256;2023-05-27T19:47:09;1027.5;;;16.8;48.4
74435;BME280;62867;52.038;29.256;2023-05-27T19:51:31;1027.6;;;16.7;48.9
74435;BME280;62867;52.038;29.256;2023-05-27T19:56:57;1027.6;;;16.6;49
74435;BME280;62867;52.038;29.256;2023-05-27T20:02:23;1027.6;;;16.4;49.1
74435;BME280;62867;52.038;29.256;2023-05-27T20:07:07;1027.6;;;16.3;49
74435;BME280;62867;52.038;29.256;2023-05-27T20:12:09;1027.6;;;16.2;49.1
74435;BME280;62867;52.038;29.256;2023-05-27T20:16:43;1027.6;;;16;49.8
74435;BME280;62867;52.038;29.256;2023-05-27T20:22:23;1027.6;;;15.9;50.2
74435;BME280;62867;52.038;29.256;2023-05-27T20:26:31;1027.6;;;15.8;50.4
74435;BME280;62867;52.038;29.256;2023-05-27T20:31:53;1027.7;;;15.7;50.6
74435;BME280;62867;52.038;29.256;2023-05-27T20:36:43;1027.7;;;15.6;50.9
74435;BME280;62867;52.038;29.256;2023-05-27T20:41:57;1027.7;;;15.5;50.7
74435;BME280;62867;52.038;29.256;2023-05-27T20:46:43;1027.8;;;15.5;50.8
74435;BME280;62867;52.038;29.256;2023-05-27T20:52:23;1027.8;;;15.4;50.5
74435;BME280;62867;52.038;29.256;2023-05-27T20:56:33;1027.9;;;15.3;50.3
74435;BME280;62867;52.038;29.256;2023-05-27T21:01:31;1027.9;;;15.3;50.5
74435;BME280;62867;52.038;29.256;2023-05-27T21:06:43;1027.9;;;15.1;50.7
74435;BME280;62867;52.038;29.256;2023-05-27T21:12:08;1027.9;;;15;51
74435;BME280;62867;52.038;29.256;2023-05-27T21:17:23;1028;;;14.8;51.5
74435;BME280;62867;52.038;29.256;2023-05-27T21:21:43;1028;;;14.7;51.6
74435;BME280;62867;52.038;29.256;2023-05-27T21:27:07;1028;;;14.6;51.6
74435;BME280;62867;52.038;29.256;2023-05-27T21:31:57;1028;;;14.5;51.8
74435;BME280;62867;52.038;29.256;2023-05-27T21:36:57;1028;;;14.5;51.5
74435;BME280;62867;52.038;29.256;2023-05-27T21:41:43;1028;;;14.4;51.5
74435;BME280;62867;52.038;29.256;2023-05-27T21:46:43;1028;;;14.3;51.5
74435;BME280;62867;52.038;29.256;2023-05-27T21:51:57;1028;;;14.2;51.6
74435;BME280;62867;52.038;29.256;2023-05-27T21:56:43;1027.9;;;14.1;51.5
74435;BME280;62867;52.038;29.256;2023-05-27T22:02:11;1027.9;;;14;51.7
74435;BME280;62867;52.038;29.256;2023-05-27T22:07:19;1028;;;13.9;51.8
74435;BME280;62867;52.038;29.256;2023-05-27T22:11:41;1028;;;13.8;52.1
74435;BME280;62867;52.038;29.256;2023-05-27T22:16:53;1028.1;;;13.7;52
74435;BME280;62867;52.038;29.256;2023-05-27T22:21:43;1028.1;;;13.5;52.3
74435;BME280;62867;52.038;29.256;2023-05-27T22:26:41;1028.1;;;13.4;52.5
74435;BME280;62867;52.038;29.256;2023-05-27T22:32:19;1028.1;;;13.3;52.8
74435;BME280;62867;52.038;29.256;2023-05-27T22:37:03;1028.1;;;13.3;52.6
74435;BME280;62867;52.038;29.256;2023-05-27T22:42:19;1028.1;;;13.2;52.6
74435;BME280;62867;52.038;29.256;2023-05-27T22:46:31;1028.1;;;13.1;52.8
74435;BME280;62867;52.038;29.256;2023-05-27T22:51:31;1028.2;;;13.1;52.3
74435;BME280;62867;52.038;29.256;2023-05-27T22:56:53;1028.2;;;13;52.6
74435;BME280;62867;52.038;29.256;2023-05-27T23:01:31;1028.2;;;13;52.8
74435;BME280;62867;52.038;29.256;2023-05-27T23:07:03;1028.1;;;12.9;53
74435;BME280;62867;52.038;29.256;2023-05-27T23:11:55;1028.1;;;12.8;52.6
74435;BME280;62867;52.038;29.256;2023-05-27T23:16:31;1028.1;;;12.8;53.1
74435;BME280;62867;52.038;29.256;2023-05-27T23:22:19;1028.1;;;12.7;53.2
74435;BME280;62867;52.038;29.256;2023-05-27T23:27:19;1028.1;;;12.6;53.2
74435;BME280;62867;52.038;29.256;2023-05-27T23:31:31;1028.1;;;12.5;53.5
74435;BME280;62867;52.038;29.256;2023-05-27T23:36:31;1028.1;;;12.4;53.4
74435;BME280;62867;52.038;29.256;2023-05-27T23:42:03;1028.2;;;12.3;53.4
74435;BME280;62867;52.038;29.256;2023-05-27T23:47:19;1028.2;;;12.2;53.2
74435;BME280;62867;52.038;29.256;2023-05-27T23:51:31;1028.2;;;12.1;53.3
74435;BME280;62867;52.038;29.256;2023-05-27T23:57:03;1028.2;;;12;53.5
